Terminal Aerodrome Forecast
Issued by NWS

Home | Current Version | Previous Version | Text Only | Print | Product List | Glossary On
Versions: 1 2 3 4 5 6 7 8 9 10 11 12 13 14 15 16 17 18 19
000
FTUS46 KLOX 080001 RRA
TAFVNY
TAF
KVNY 080001Z 0800/0824 14009KT P6SM SKC
     FM080500 12005KT P6SM BKN014
     FM081300 VRB04KT 6SM -DZ BR BKN009 OVC019
     FM081700 15007KT P6SM SCT024
     FM081900 16010KT P6SM SCT024=

USA.gov is the U.S. government's official web portal to all federal, state and local government web resources and services.